Time;durP1;ratioP1;P1;durP2;ratioP2;P2;SDS_P1;SDS_P2;PMS_P1;PMS_P2;Temp;Humidity;BMP_temperature;BMP_pressure;BME280_temperature;BME280_humidity;BME280_pressure;Samples;Min_cycle;Max_cycle;Signal;HPM_P1;HPM_P2
2022/04/10 00:00:07;;;;;;;8.60;3.80;;;;;;;1.06;100.00;101010.75;681997;28;1333;-78
2022/04/10 00:00:40;;;;;;;6.80;3.80;;;;;;;1.06;100.00;101009.03;681443;29;1546;-79
2022/04/10 00:01:01;;;;;;;6.35;3.35;;;;;;;1.06;100.00;101013.34;679567;29;4291;-78
2022/04/10 00:01:22;;;;;;;6.38;3.40;;;;;;;1.03;100.00;101006.34;685259;28;1632;-78
2022/04/10 00:01:43;;;;;;;6.10;3.40;;;;;;;1.01;100.00;101034.63;682352;28;1539;-78
2022/04/10 00:02:04;;;;;;;6.43;3.58;;;;;;;1.03;100.00;101011.50;682569;29;1781;-78
2022/04/10 00:02:24;;;;;;;7.93;4.10;;;;;;;1.06;100.00;101010.75;676948;29;1625;-78
2022/04/10 00:02:45;;;;;;;8.25;3.60;;;;;;;1.04;100.00;101015.84;676814;29;1250;-78
2022/04/10 00:03:06;;;;;;;7.45;3.58;;;;;;;1.05;100.00;101016.72;678683;29;1494;-78
2022/04/10 00:03:26;;;;;;;7.38;3.45;;;;;;;0.98;100.00;101024.22;679674;28;1796;-78
2022/04/10 00:03:47;;;;;;;6.50;3.40;;;;;;;0.99;100.00;101013.06;682538;28;1407;-78
2022/04/10 00:04:07;;;;;;;6.30;3.40;;;;;;;0.99;100.00;101041.38;684570;28;4283;-78
2022/04/10 00:04:28;;;;;;;6.97;3.67;;;;;;;0.95;100.00;101023.19;685458;28;1395;-79
2022/04/10 00:04:49;;;;;;;6.75;3.63;;;;;;;0.94;100.00;101024.91;687718;28;1292;-78
2022/04/10 00:05:12;;;;;;;6.32;3.42;;;;;;;0.91;100.00;101006.72;687751;28;1483;-79
2022/04/10 00:05:33;;;;;;;7.20;3.45;;;;;;;0.86;100.00;101013.41;685377;28;1284;-78
2022/04/10 00:05:56;;;;;;;6.68;3.63;;;;;;;0.83;100.00;101037.34;682812;28;1619;-79
2022/04/10 00:06:17;;;;;;;5.82;3.42;;;;;;;0.82;100.00;101009.84;678568;29;1321;-79
2022/04/10 00:06:38;;;;;;;6.53;3.47;;;;;;;0.85;100.00;101040.84;679185;29;1292;-78
2022/04/10 00:07:02;;;;;;;7.10;3.60;;;;;;;0.85;100.00;101042.53;676760;29;4334;-78
2022/04/10 00:07:22;;;;;;;6.80;3.25;;;;;;;0.80;100.00;101044.94;679854;29;1609;-79
2022/04/10 00:07:43;;;;;;;6.45;3.28;;;;;;;0.83;100.00;101049.31;678164;28;1582;-78
2022/04/10 00:08:04;;;;;;;6.13;3.42;;;;;;;0.81;100.00;101036.38;678841;29;1752;-77
2022/04/10 00:08:25;;;;;;;6.47;3.50;;;;;;;0.81;100.00;101030.38;678730;29;1734;-77
2022/04/10 00:08:45;;;;;;;7.55;3.72;;;;;;;0.81;100.00;101020.94;682122;28;1284;-78
2022/04/10 00:09:13;;;;;;;6.88;3.55;;;;;;;0.82;100.00;101027.84;678055;28;1438;-78
2022/04/10 00:09:34;;;;;;;7.32;3.50;;;;;;;0.86;100.00;101044.31;681711;28;1642;-78
2022/04/10 00:09:55;;;;;;;7.25;3.83;;;;;;;0.85;100.00;101043.41;679236;28;4370;-78
2022/04/10 00:10:15;;;;;;;7.28;3.65;;;;;;;0.85;100.00;101027.09;678598;29;1887;-78
2022/04/10 00:10:38;;;;;;;6.95;3.42;;;;;;;0.86;100.00;101013.41;677617;29;1425;-78
2022/04/10 00:10:59;;;;;;;7.15;3.42;;;;;;;0.85;100.00;101034.81;677184;29;1359;-78
2022/04/10 00:11:19;;;;;;;5.37;3.00;;;;;;;0.81;100.00;101023.50;676521;29;1510;-78
2022/04/10 00:11:40;;;;;;;5.85;3.17;;;;;;;0.80;100.00;101013.16;677011;29;1704;-78
2022/04/10 00:12:01;;;;;;;8.30;3.50;;;;;;;0.79;100.00;101020.00;678659;29;1396;-79
2022/04/10 00:12:21;;;;;;;7.95;3.40;;;;;;;0.77;100.00;101018.19;680307;28;1379;-79
2022/04/10 00:12:45;;;;;;;7.53;3.50;;;;;;;0.80;100.00;101036.31;678585;29;1659;-78
2022/04/10 00:13:06;;;;;;;7.57;3.63;;;;;;;0.77;100.00;101018.19;679819;28;4346;-78
2022/04/10 00:13:27;;;;;;;6.75;3.55;;;;;;;0.77;100.00;101020.75;681486;29;1779;-78
2022/04/10 00:13:48;;;;;;;7.15;3.47;;;;;;;0.75;100.00;101018.13;683536;28;1285;-78
2022/04/10 00:14:11;;;;;;;7.53;3.50;;;;;;;0.80;100.00;101039.78;679584;29;1500;-78
2022/04/10 00:14:31;;;;;;;7.75;3.65;;;;;;;0.81;100.00;101014.91;677085;29;1131;-78
2022/04/10 00:14:52;;;;;;;7.93;3.60;;;;;;;0.80;100.00;101038.88;680350;29;1474;-79
2022/04/10 00:15:12;;;;;;;6.70;3.47;;;;;;;0.80;100.00;101052.66;680957;29;1575;-78
2022/04/10 00:15:34;;;;;;;6.32;3.30;;;;;;;0.75;100.00;101056.72;682605;28;1769;-78
2022/04/10 00:15:55;;;;;;;6.80;3.40;;;;;;;0.79;100.00;101027.72;684188;28;4331;-78
2022/04/10 00:16:15;;;;;;;5.93;3.35;;;;;;;0.83;100.00;101019.31;680722;29;1966;-79
2022/04/10 00:16:36;;;;;;;7.22;3.70;;;;;;;0.84;100.00;101044.25;680911;28;3348;-78
2022/04/10 00:16:57;;;;;;;7.10;3.65;;;;;;;0.84;100.00;101012.47;680726;28;1508;-79
2022/04/10 00:17:18;;;;;;;7.80;4.07;;;;;;;0.82;100.00;101039.84;677766;29;1632;-78
2022/04/10 00:17:41;;;;;;;7.32;3.50;;;;;;;0.80;100.00;101031.16;678999;29;1174;-79
2022/04/10 00:18:02;;;;;;;8.30;3.63;;;;;;;0.84;100.00;101040.78;676620;29;1776;-78
2022/04/10 00:18:23;;;;;;;7.78;3.60;;;;;;;0.95;100.00;101015.47;674260;29;1623;-79
2022/04/10 00:18:43;;;;;;;7.50;3.47;;;;;;;0.91;100.00;101027.31;680852;28;1596;-79
2022/04/10 00:19:05;;;;;;;8.10;3.40;;;;;;;0.91;100.00;101037.63;682093;28;4324;-78
2022/04/10 00:19:26;;;;;;;7.05;3.50;;;;;;;0.92;100.00;101021.38;682409;28;1547;-78
2022/04/10 00:19:47;;;;;;;7.43;3.90;;;;;;;0.87;100.00;101042.59;682595;28;1666;-78
2022/04/10 00:20:11;;;;;;;6.43;3.50;;;;;;;0.86;100.00;101013.41;679592;28;1548;-78
2022/04/10 00:20:32;;;;;;;7.00;3.60;;;;;;;0.86;100.00;101039.16;679343;28;1439;-78
2022/04/10 00:20:53;;;;;;;9.05;3.55;;;;;;;0.83;100.00;101011.59;680464;28;1662;-78
2022/04/10 00:21:14;;;;;;;11.03;3.80;;;;;;;0.82;100.00;101014.13;680447;28;1440;-77
2022/04/10 00:21:35;;;;;;;8.40;3.60;;;;;;;0.81;100.00;101018.34;679299;28;1396;-78
2022/04/10 00:21:56;;;;;;;6.22;3.20;;;;;;;0.75;100.00;101012.97;676423;28;4330;-77
2022/04/10 00:22:16;;;;;;;6.43;3.23;;;;;;;0.72;100.00;101025.72;683227;28;1475;-79
2022/04/10 00:22:45;;;;;;;6.57;3.43;;;;;;;0.76;100.00;101016.41;685315;28;1360;-78
2022/04/10 00:23:06;;;;;;;8.63;3.50;;;;;;;0.83;100.00;101044.16;682175;28;1681;-78
2022/04/10 00:23:27;;;;;;;7.55;3.50;;;;;;;0.85;100.00;101045.13;683008;28;1689;-78
2022/04/10 00:23:47;;;;;;;7.38;3.42;;;;;;;0.85;100.00;101032.25;682845;28;1647;-79
2022/04/10 00:24:09;;;;;;;7.35;3.40;;;;;;;0.83;100.00;101031.28;682875;28;1780;-79
2022/04/10 00:24:29;;;;;;;7.03;3.70;;;;;;;0.78;100.00;101040.53;685838;28;1673;-78
2022/04/10 00:24:50;;;;;;;7.78;3.70;;;;;;;0.88;100.00;101027.22;683728;28;1886;-79
2022/04/10 00:25:12;;;;;;;6.70;3.42;;;;;;;0.81;100.00;101020.94;682340;28;4295;-78
2022/04/10 00:25:33;;;;;;;7.40;3.53;;;;;;;0.76;100.00;101016.41;680280;28;1520;-78
2022/04/10 00:25:54;;;;;;;6.40;3.60;;;;;;;0.73;100.00;101024.03;674482;29;1205;-78
2022/04/10 00:26:15;;;;;;;6.43;3.70;;;;;;;0.77;100.00;101039.63;675620;29;1723;-78
2022/04/10 00:26:38;;;;;;;7.35;3.80;;;;;;;0.81;100.00;101020.06;678127;29;1150;-78
2022/04/10 00:26:59;;;;;;;6.28;3.78;;;;;;;0.80;100.00;101021.78;677757;29;1140;-78
2022/04/10 00:27:19;;;;;;;6.10;3.33;;;;;;;0.84;100.00;101045.91;677936;29;1415;-78
2022/04/10 00:27:41;;;;;;;7.22;3.67;;;;;;;0.83;100.00;101049.31;674630;29;1473;-79
2022/04/10 00:28:02;;;;;;;6.03;3.50;;;;;;;0.83;100.00;101023.56;679571;28;4324;-78
2022/04/10 00:28:23;;;;;;;7.13;3.40;;;;;;;0.83;100.00;101028.72;680269;28;1352;-78
2022/04/10 00:28:44;;;;;;;7.55;3.22;;;;;;;0.81;100.00;101020.94;682053;28;2084;-79
2022/04/10 00:29:06;;;;;;;7.43;3.40;;;;;;;0.76;100.00;101040.47;682234;28;1315;-79
2022/04/10 00:29:29;;;;;;;7.15;3.60;;;;;;;0.80;100.00;101020.88;680511;28;1742;-78
2022/04/10 00:29:50;;;;;;;7.53;3.90;;;;;;;0.78;100.00;101022.53;679359;29;1858;-78
2022/04/10 00:30:13;;;;;;;8.20;3.70;;;;;;;0.76;100.00;101019.00;677799;29;1217;-78
2022/04/10 00:30:34;;;;;;;8.07;3.83;;;;;;;0.72;100.00;101015.44;673882;29;1640;-78
2022/04/10 00:30:54;;;;;;;8.73;3.93;;;;;;;0.70;100.00;101017.03;674492;29;1465;-79
2022/04/10 00:31:15;;;;;;;8.02;3.60;;;;;;;0.69;100.00;101025.56;675017;29;4464;-78
2022/04/10 00:31:35;;;;;;;8.50;3.70;;;;;;;0.71;100.00;101028.22;677607;29;1273;-78
2022/04/10 00:31:56;;;;;;;5.60;3.30;;;;;;;0.70;100.00;101021.31;678251;29;1133;-78
2022/04/10 00:32:16;;;;;;;6.38;3.20;;;;;;;0.67;100.00;101012.66;679712;28;1631;-78
2022/04/10 00:32:40;;;;;;;7.45;3.30;;;;;;;0.64;100.00;101021.97;679556;28;1277;-78
2022/04/10 00:33:01;;;;;;;7.30;3.65;;;;;;;0.58;100.00;101027.72;680107;28;1087;-77
2022/04/10 00:33:22;;;;;;;7.50;4.30;;;;;;;0.59;100.00;101024.31;680092;28;1618;-80
2022/04/10 00:33:43;;;;;;;6.70;3.50;;;;;;;0.57;100.00;101046.56;680263;28;1425;-79
2022/04/10 00:34:03;;;;;;;8.70;3.70;;;;;;;0.55;100.00;101017.28;683009;28;4355;-80
2022/04/10 00:34:24;;;;;;;6.95;3.75;;;;;;;0.57;100.00;101045.66;683599;28;1499;-79
2022/04/10 00:34:44;;;;;;;5.97;3.30;;;;;;;0.58;100.00;101050.88;678576;28;1378;-78
2022/04/10 00:35:06;;;;;;;8.20;4.30;;;;;;;0.62;100.00;101029.63;676826;28;1433;-79
2022/04/10 00:35:27;;;;;;;7.28;3.80;;;;;;;0.64;100.00;101025.41;677827;29;1816;-78
2022/04/10 00:35:48;;;;;;;6.07;3.47;;;;;;;0.64;100.00;101021.97;680157;28;1372;-78
2022/04/10 00:36:09;;;;;;;6.85;3.47;;;;;;;0.64;100.00;101030.53;684877;28;1432;-78
2022/04/10 00:36:29;;;;;;;6.65;3.20;;;;;;;0.64;100.00;101032.25;681079;28;1964;-78
2022/04/10 00:36:50;;;;;;;8.10;3.50;;;;;;;0.62;100.00;101016.75;680380;28;1782;-77
2022/04/10 00:37:17;;;;;;;9.50;3.30;;;;;;;0.64;100.00;101025.41;679314;28;4345;-78
2022/04/10 00:37:39;;;;;;;7.00;3.50;;;;;;;0.64;100.00;101033.13;677008;29;1351;-77
2022/04/10 00:38:02;;;;;;;6.93;3.60;;;;;;;0.62;100.00;101019.31;679661;28;1458;-78
2022/04/10 00:38:23;;;;;;;6.47;3.70;;;;;;;0.62;100.00;101018.44;680061;29;1689;-78
2022/04/10 00:38:43;;;;;;;6.30;3.50;;;;;;;0.64;100.00;101019.38;680540;28;1347;-78
2022/04/10 00:39:04;;;;;;;6.63;3.50;;;;;;;0.68;100.00;101029.84;678893;29;4703;-78
2022/04/10 00:39:27;;;;;;;6.85;3.60;;;;;;;0.66;100.00;101052.06;683096;28;2089;-78
2022/04/10 00:39:48;;;;;;;8.70;4.00;;;;;;;0.67;100.00;101025.53;683656;28;1434;-78
2022/04/10 00:40:10;;;;;;;8.60;3.80;;;;;;;0.65;100.00;101034.88;681679;28;4284;-77
2022/04/10 00:40:32;;;;;;;6.90;3.50;;;;;;;0.65;100.00;101042.59;678073;29;1113;-78
2022/04/10 00:40:52;;;;;;;7.20;3.85;;;;;;;0.66;100.00;101033.19;681049;28;959;-78
2022/04/10 00:41:13;;;;;;;7.03;3.83;;;;;;;0.65;100.00;101040.03;681992;28;1788;-78
2022/04/10 00:41:34;;;;;;;6.87;3.50;;;;;;;0.66;100.00;101056.34;684844;28;1769;-78
2022/04/10 00:41:55;;;;;;;7.63;3.83;;;;;;;0.68;100.00;101045.28;679739;28;1432;-78
2022/04/10 00:42:16;;;;;;;7.78;3.42;;;;;;;0.72;100.00;101019.69;679216;28;1632;-78
2022/04/10 00:42:40;;;;;;;7.53;3.40;;;;;;;0.70;100.00;101052.22;682883;28;1416;-78
2022/04/10 00:43:00;;;;;;;6.82;3.60;;;;;;;0.67;100.00;101034.94;681679;28;4363;-78
2022/04/10 00:43:21;;;;;;;7.13;3.38;;;;;;;0.65;100.00;101023.69;682607;28;1340;-78
2022/04/10 00:44:23;;;;;;;6.55;3.58;;;;;;;0.76;100.00;101019.00;681519;28;1323;-78
2022/04/10 00:44:44;;;;;;;7.65;4.30;;;;;;;0.79;100.00;101022.59;678375;29;1595;-81
2022/04/10 00:45:09;;;;;;;6.93;3.83;;;;;;;0.76;100.00;101014.75;678756;28;1504;-78
2022/04/10 00:45:30;;;;;;;7.80;3.65;;;;;;;0.77;100.00;101028.47;681716;28;1172;-78
2022/04/10 00:45:50;;;;;;;7.57;3.60;;;;;;;0.76;100.00;101016.41;677289;29;1611;-78
2022/04/10 00:46:11;;;;;;;9.75;4.03;;;;;;;0.74;100.00;101023.22;671027;29;4362;-78
2022/04/10 00:46:41;;;;;;;6.53;3.87;;;;;;;0.73;100.00;101012.03;675218;29;1517;-77
2022/04/10 00:47:03;;;;;;;7.20;3.80;;;;;;;0.76;100.00;101016.41;676282;29;1247;-78
2022/04/10 00:47:24;;;;;;;7.45;3.70;;;;;;;0.76;100.00;101019.00;677991;29;1641;-78
2022/04/10 00:47:45;;;;;;;8.30;3.78;;;;;;;0.72;100.00;101020.59;679881;28;1112;-77
2022/04/10 00:48:06;;;;;;;9.20;3.83;;;;;;;0.71;100.00;101048.78;672038;29;1468;-78
2022/04/10 00:48:28;;;;;;;7.27;3.60;;;;;;;0.75;100.00;101020.69;674735;29;1630;-78
2022/04/10 00:48:50;;;;;;;5.97;3.30;;;;;;;0.73;100.00;101049.75;675490;29;1818;-78
2022/04/10 00:49:11;;;;;;;7.88;3.78;;;;;;;0.72;100.00;101066.00;670123;29;4340;-78
2022/04/10 00:49:34;;;;;;;7.60;3.80;;;;;;;0.71;100.00;101012.78;674981;29;1390;-78
2022/04/10 00:50:00;;;;;;;7.30;3.40;;;;;;;0.72;100.00;101035.13;673754;29;1224;-78
2022/04/10 00:50:23;;;;;;;8.20;3.47;;;;;;;0.75;100.00;101020.69;671029;29;1770;-78
2022/04/10 00:51:40;;;;;;;8.55;3.70;;;;;;;0.74;100.00;101034.38;673880;29;1409;-78
2022/04/10 00:51:43;;;;;;;7.10;3.70;;;;;;;0.74;100.00;101044.66;677393;29;1514;-78
2022/04/10 00:52:09;;;;;;;7.00;3.70;;;;;;;0.69;100.00;101035.88;677420;29;4397;-78
2022/04/10 00:52:30;;;;;;;8.13;3.97;;;;;;;0.68;100.00;101035.00;675959;29;1263;-78
2022/04/10 00:52:51;;;;;;;7.50;3.80;;;;;;;0.67;100.00;101030.66;671888;29;1436;-78
2022/04/10 00:53:12;;;;;;;6.45;3.60;;;;;;;0.66;100.00;101034.03;674066;29;1401;-78
2022/04/10 00:53:32;;;;;;;8.90;3.70;;;;;;;0.64;100.00;101045.97;676081;29;1724;-79
2022/04/10 00:53:54;;;;;;;9.07;3.83;;;;;;;0.67;100.00;101032.38;680204;29;1200;-78
2022/04/10 00:54:20;;;;;;;7.63;4.00;;;;;;;0.68;100.00;101036.72;680838;28;1311;-78
2022/04/10 00:54:41;;;;;;;7.22;3.50;;;;;;;0.64;100.00;101063.13;683078;28;1762;-78
2022/04/10 00:55:03;;;;;;;8.23;3.50;;;;;;;0.65;100.00;101029.75;683762;28;4325;-79
2022/04/10 00:55:23;;;;;;;8.63;3.67;;;;;;;0.66;100.00;101046.91;683808;28;995;-78
2022/04/10 00:55:44;;;;;;;7.20;3.50;;;;;;;0.67;100.00;101047.81;682411;28;1816;-78
2022/04/10 00:56:05;;;;;;;7.43;3.47;;;;;;;0.67;100.00;101025.53;680454;28;1919;-78
2022/04/10 00:56:29;;;;;;;8.65;3.60;;;;;;;0.64;100.00;101064.00;679759;28;1945;-79
2022/04/10 00:57:00;;;;;;;6.88;3.75;;;;;;;0.62;100.00;101027.03;679669;28;1482;-79
2022/04/10 00:57:25;;;;;;;9.15;3.80;;;;;;;0.61;100.00;101034.66;682299;28;1695;-79
2022/04/10 00:57:47;;;;;;;6.80;3.80;;;;;;;0.62;100.00;101075.03;682853;28;1674;-79
2022/04/10 00:58:07;;;;;;;6.30;3.70;;;;;;;0.59;100.00;101054.31;683950;28;4303;-78
2022/04/10 00:58:28;;;;;;;7.03;3.70;;;;;;;0.61;100.00;101062.97;684772;28;1674;-79
2022/04/10 00:58:49;;;;;;;8.17;3.63;;;;;;;0.61;100.00;101043.28;684504;28;1271;-79
2022/04/10 00:59:10;;;;;;;7.57;3.53;;;;;;;0.63;100.00;101026.22;679850;28;1199;-79
2022/04/10 00:59:31;;;;;;;7.68;3.80;;;;;;;0.60;100.00;101038.94;681298;28;1129;-79
2022/04/10 00:59:53;;;;;;;8.18;3.70;;;;;;;0.59;100.00;101034.63;682959;28;1137;-79
2022/04/10 01:00:15;;;;;;;8.13;3.55;;;;;;;0.59;100.00;101028.59;686031;28;1292;-81
2022/04/10 01:00:35;;;;;;;7.10;3.60;;;;;;;0.62;100.00;101033.88;680113;28;1447;-79
2022/04/10 01:00:56;;;;;;;7.07;3.57;;;;;;;0.62;100.00;101033.88;679848;28;4368;-78
2022/04/10 01:01:17;;;;;;;10.05;3.97;;;;;;;0.61;100.00;101039.81;680771;28;1970;-79
2022/04/10 01:01:39;;;;;;;9.13;4.30;;;;;;;0.57;100.00;101030.22;679859;29;1234;-79
2022/04/10 01:01:59;;;;;;;7.97;4.03;;;;;;;0.54;100.00;101043.84;682693;28;1469;-79
2022/04/10 01:02:20;;;;;;;8.17;3.77;;;;;;;0.52;100.00;101030.03;683384;28;1616;-79
2022/04/10 01:02:41;;;;;;;7.88;3.78;;;;;;;0.53;100.00;101033.47;683531;28;1802;-79
2022/04/10 01:03:01;;;;;;;8.13;3.95;;;;;;;0.49;100.00;101033.34;683579;28;1363;-80
2022/04/10 01:03:22;;;;;;;7.75;3.65;;;;;;;0.52;100.00;101035.19;676120;29;1284;-79
2022/04/10 01:03:44;;;;;;;8.00;3.83;;;;;;;0.48;100.00;101057.31;681541;28;1422;-79
2022/04/10 01:04:05;;;;;;;8.65;3.75;;;;;;;0.49;100.00;101032.47;681510;28;4363;-79
2022/04/10 01:04:26;;;;;;;7.10;3.70;;;;;;;0.49;100.00;101033.34;685403;28;1547;-79
2022/04/10 01:04:47;;;;;;;6.53;3.72;;;;;;;0.46;100.00;101058.94;683775;28;1261;-79
2022/04/10 01:05:08;;;;;;;6.28;3.60;;;;;;;0.46;100.00;101064.09;683468;28;1267;-79
2022/04/10 01:05:29;;;;;;;6.63;3.83;;;;;;;0.41;100.00;101036.41;684736;28;1720;-79
2022/04/10 01:05:49;;;;;;;6.93;3.60;;;;;;;0.38;100.00;101087.75;685799;28;1351;-79
2022/04/10 01:06:10;;;;;;;7.75;4.10;;;;;;;0.36;100.00;101045.63;682764;28;1348;-79
2022/04/10 01:06:40;;;;;;;8.15;3.70;;;;;;;0.32;100.00;101060.94;683663;28;1459;-79
2022/04/10 01:07:01;;;;;;;7.28;3.90;;;;;;;0.34;100.00;101043.84;682686;28;4320;-79
2022/04/10 01:07:28;;;;;;;7.32;3.85;;;;;;;0.39;100.00;101040.59;682985;28;1655;-78
2022/04/10 01:07:57;;;;;;;7.03;3.72;;;;;;;0.37;100.00;101034.53;685052;28;1497;-79
2022/04/10 01:08:31;;;;;;;8.68;3.75;;;;;;;0.39;100.00;101071.47;682838;28;1438;-79
2022/04/10 01:09:02;;;;;;;7.15;3.47;;;;;;;0.38;100.00;101059.44;675347;29;1682;-79
2022/04/10 01:09:31;;;;;;;9.20;4.00;;;;;;;0.36;100.00;101037.91;674715;29;1526;-79
2022/04/10 01:09:53;;;;;;;8.20;3.83;;;;;;;0.38;100.00;101034.59;678050;29;1453;-80
2022/04/10 01:10:13;;;;;;;8.38;3.72;;;;;;;0.38;100.00;101033.72;681046;28;4382;-79
2022/04/10 01:10:34;;;;;;;8.90;4.10;;;;;;;0.40;100.00;101032.97;679685;28;1239;-79
2022/04/10 01:10:55;;;;;;;7.60;4.00;;;;;;;0.38;100.00;101034.59;685276;28;1798;-79
2022/04/10 01:11:16;;;;;;;7.25;3.88;;;;;;;0.36;100.00;101053.34;685983;28;1420;-79
2022/04/10 01:11:37;;;;;;;10.80;4.13;;;;;;;0.34;100.00;101046.44;686155;28;1708;-79
2022/04/10 01:11:59;;;;;;;9.60;4.10;;;;;;;0.34;100.00;101035.28;682909;28;1631;-79
2022/04/10 01:12:23;;;;;;;8.55;3.88;;;;;;;0.36;100.00;101040.47;677794;29;1719;-79
2022/04/10 01:12:47;;;;;;;7.75;3.80;;;;;;;0.42;100.00;101035.63;677729;29;3985;-79
2022/04/10 01:13:12;;;;;;;7.18;3.78;;;;;;;0.42;100.00;101035.63;680440;28;4331;-79
2022/04/10 01:13:33;;;;;;;6.55;3.88;;;;;;;0.42;100.00;101051.06;676784;29;1605;-79
2022/04/10 01:13:54;;;;;;;7.68;4.05;;;;;;;0.40;100.00;101039.81;676943;29;1190;-80
2022/04/10 01:14:16;;;;;;;7.57;3.70;;;;;;;0.41;100.00;101033.84;676901;29;1362;-79
2022/04/10 01:14:40;;;;;;;8.10;3.80;;;;;;;0.39;100.00;101036.38;676428;29;1871;-78
2022/04/10 01:15:05;;;;;;;6.95;3.80;;;;;;;0.46;100.00;101040.06;679766;28;1482;-79
2022/04/10 01:15:29;;;;;;;7.80;3.83;;;;;;;0.43;100.00;101078.50;680866;29;1389;-79
2022/04/10 01:15:50;;;;;;;7.35;3.67;;;;;;;0.38;100.00;101031.16;681288;28;1134;-78
2022/04/10 01:16:11;;;;;;;7.20;3.90;;;;;;;0.38;100.00;101036.31;678483;29;4364;-79
2022/04/10 01:16:32;;;;;;;6.97;3.90;;;;;;;0.38;100.00;101062.03;678485;29;1950;-79
2022/04/10 01:16:53;;;;;;;7.93;4.13;;;;;;;0.33;100.00;101070.41;673639;29;1531;-79
2022/04/10 01:17:16;;;;;;;8.75;4.07;;;;;;;0.33;100.00;101066.94;678746;28;1683;-79
2022/04/10 01:17:37;;;;;;;7.90;3.70;;;;;;;0.28;100.00;101030.75;679816;28;1778;-79
2022/04/10 01:17:58;;;;;;;7.28;3.90;;;;;;;0.26;100.00;101046.94;680000;28;1294;-79
2022/04/10 01:18:20;;;;;;;9.82;4.30;;;;;;;0.20;100.00;101038.97;683082;28;1811;-79
2022/04/10 01:18:41;;;;;;;9.07;3.97;;;;;;;0.19;100.00;101042.34;679607;28;1820;-79
2022/04/10 01:19:04;;;;;;;7.68;3.95;;;;;;;0.15;100.00;101060.22;679180;28;4347;-79
2022/04/10 01:19:25;;;;;;;7.88;3.80;;;;;;;0.14;100.00;101052.44;683833;28;1709;-78
2022/04/10 01:19:55;;;;;;;7.70;3.85;;;;;;;0.15;100.00;101038.75;682897;28;1470;-79
2022/04/10 01:20:21;;;;;;;8.88;4.47;;;;;;;0.17;100.00;101039.69;681134;29;1750;-79
2022/04/10 01:20:45;;;;;;;7.65;4.30;;;;;;;0.20;100.00;101055.25;679810;28;1574;-79
2022/04/10 01:21:07;;;;;;;7.18;4.00;;;;;;;0.26;100.00;101036.63;680910;28;1286;-79
2022/04/10 01:21:32;;;;;;;13.70;4.40;;;;;;;0.27;100.00;101046.13;680682;28;1222;-79
2022/04/10 01:22:03;;;;;;;14.88;4.63;;;;;;;0.24;100.00;101036.56;677627;29;4311;-79
2022/04/10 01:22:33;;;;;;;8.30;4.55;;;;;;;0.25;100.00;101040.00;675774;29;1233;-79
2022/04/10 01:22:58;;;;;;;7.18;4.20;;;;;;;0.25;100.00;101042.59;680142;29;1558;-79
2022/04/10 01:23:19;;;;;;;7.05;4.20;;;;;;;0.23;100.00;101041.66;681741;28;1226;-79
2022/04/10 01:23:43;;;;;;;6.82;4.18;;;;;;;0.22;100.00;101038.19;683762;28;1337;-79
2022/04/10 01:24:04;;;;;;;8.25;4.40;;;;;;;0.23;100.00;101039.94;680634;28;1747;-79
2022/04/10 01:24:25;;;;;;;8.15;4.20;;;;;;;0.25;100.00;101040.91;682800;28;1272;-79
2022/04/10 01:24:50;;;;;;;6.35;4.10;;;;;;;0.26;100.00;101058.09;677674;28;1747;-79
2022/04/10 01:25:13;;;;;;;6.95;4.25;;;;;;;0.22;100.00;101045.91;683105;28;4271;-79
2022/04/10 01:25:36;;;;;;;6.90;4.03;;;;;;;0.22;100.00;101042.47;677830;29;1635;-79
2022/04/10 01:25:58;;;;;;;6.43;3.80;;;;;;;0.15;100.00;101041.31;684107;28;1729;-79
2022/04/10 01:26:22;;;;;;;7.97;4.28;;;;;;;0.14;100.00;101066.16;681352;28;1981;-79
2022/04/10 01:26:44;;;;;;;8.20;4.40;;;;;;;0.12;100.00;101043.75;683217;28;1388;-79
2022/04/10 01:27:06;;;;;;;8.38;4.50;;;;;;;0.10;100.00;101069.41;686116;28;1759;-77
2022/04/10 01:27:33;;;;;;;7.30;4.43;;;;;;;0.10;100.00;101058.25;685013;28;2069;-78
2022/04/10 01:27:54;;;;;;;7.75;4.05;;;;;;;0.10;100.00;101042.81;685918;28;1430;-78
2022/04/10 01:28:19;;;;;;;6.85;4.32;;;;;;;0.08;100.00;101040.16;682458;28;4919;-78
2022/04/10 01:29:02;;;;;;;6.78;4.30;;;;;;;0.09;100.00;101036.78;683466;28;1978;-77
2022/04/10 01:29:27;;;;;;;7.47;4.30;;;;;;;0.04;100.00;101050.25;683668;28;1768;-78
2022/04/10 01:29:47;;;;;;;8.60;4.53;;;;;;;0.02;100.00;101068.19;683150;28;2100;-78
2022/04/10 01:30:11;;;;;;;9.20;4.57;;;;;;;0.04;100.00;101038.25;682867;28;1765;-78
2022/04/10 01:30:33;;;;;;;7.55;4.22;;;;;;;0.09;100.00;101056.47;681272;28;1296;-78
2022/04/10 01:30:54;;;;;;;9.00;4.65;;;;;;;0.15;100.00;101041.31;681961;28;1344;-78
2022/04/10 01:31:16;;;;;;;7.63;4.70;;;;;;;0.15;100.00;101051.59;679468;29;4770;-78
2022/04/10 01:31:42;;;;;;;6.30;4.30;;;;;;;0.17;100.00;101039.69;681340;28;1501;-78
2022/04/10 01:32:04;;;;;;;7.45;4.72;;;;;;;0.14;100.00;101037.00;682084;28;1402;-78
2022/04/10 01:32:24;;;;;;;7.72;4.45;;;;;;;0.17;100.00;101062.84;679024;29;1827;-78
2022/04/10 01:32:45;;;;;;;8.05;4.50;;;;;;;0.16;100.00;101043.94;677992;29;1944;-78
2022/04/10 01:33:06;;;;;;;7.40;4.60;;;;;;;0.16;100.00;101046.50;677443;29;1437;-78
2022/04/10 01:33:27;;;;;;;7.77;4.60;;;;;;;0.13;100.00;101069.53;677664;29;1272;-78
2022/04/10 01:33:48;;;;;;;9.10;4.68;;;;;;;0.15;100.00;101044.78;681130;28;2581;-78
2022/04/10 01:34:13;;;;;;;7.28;4.38;;;;;;;0.19;100.00;101047.47;683436;28;4295;-78
2022/04/10 01:34:37;;;;;;;7.85;4.53;;;;;;;0.17;100.00;101045.72;686041;28;1981;-78
2022/04/10 01:35:00;;;;;;;7.00;4.35;;;;;;;0.21;100.00;101050.97;681078;28;1140;-78
2022/04/10 01:35:25;;;;;;;7.45;4.25;;;;;;;0.19;100.00;101050.91;679030;29;1567;-78
2022/04/10 01:35:47;;;;;;;6.93;4.60;;;;;;;0.10;100.00;101041.13;679730;29;1630;-78
2022/04/10 01:36:13;;;;;;;8.75;4.63;;;;;;;0.06;100.00;101043.50;680604;29;1533;-78
2022/04/10 01:36:35;;;;;;;7.78;4.70;;;;;;;0.04;100.00;101047.69;683687;28;1915;-79
2022/04/10 01:36:56;;;;;;;6.65;4.80;;;;;;;0.03;100.00;101041.66;682050;28;4332;-78
2022/04/10 01:37:19;;;;;;;7.70;4.80;;;;;;;0.06;100.00;101041.78;684955;28;1157;-78
2022/04/10 01:37:40;;;;;;;7.50;4.60;;;;;;;0.06;100.00;101043.50;682243;28;1147;-78
2022/04/10 01:38:06;;;;;;;8.23;4.40;;;;;;;0.07;100.00;101042.66;677302;29;1624;-79
2022/04/10 01:38:37;;;;;;;6.85;4.25;;;;;;;0.06;100.00;101040.94;682818;28;1143;-78
2022/04/10 01:38:59;;;;;;;6.88;4.45;;;;;;;0.02;100.00;101039.03;682949;28;4612;-78
2022/04/10 01:39:21;;;;;;;7.07;4.47;;;;;;;0.00;100.00;101038.97;679967;29;1260;-78
2022/04/10 01:39:44;;;;;;;9.18;4.95;;;;;;;0.02;100.00;101039.03;677329;29;1631;-78
2022/04/10 01:40:06;;;;;;;8.60;4.88;;;;;;;0.06;100.00;101044.38;677571;29;4333;-78
2022/04/10 01:40:26;;;;;;;7.18;4.40;;;;;;;0.07;100.00;101038.41;677904;29;1876;-79
2022/04/10 01:40:47;;;;;;;8.43;4.80;;;;;;;0.03;100.00;101041.66;678088;29;1391;-78
2022/04/10 01:41:13;;;;;;;7.57;4.68;;;;;;;-0.07;100.00;101042.06;675822;29;1455;-78
2022/04/10 01:41:34;;;;;;;7.47;4.88;;;;;;;-0.17;100.00;101038.19;677337;29;1761;-78
2022/04/10 01:41:56;;;;;;;8.35;5.13;;;;;;;-0.22;100.00;101040.56;674691;29;1659;-79
2022/04/10 01:42:18;;;;;;;9.15;5.18;;;;;;;-0.21;100.00;101047.47;674732;29;1290;-79
2022/04/10 01:42:41;;;;;;;8.32;4.90;;;;;;;-0.13;100.00;101047.81;675439;29;1593;-78
2022/04/10 01:43:02;;;;;;;8.85;4.60;;;;;;;-0.06;100.00;101036.97;672596;29;5294;-79
2022/04/10 01:43:23;;;;;;;7.80;4.60;;;;;;;-0.03;100.00;101032.00;678154;28;1411;-78
2022/04/10 01:43:46;;;;;;;9.33;4.80;;;;;;;0.00;100.00;101046.69;674421;29;1478;-78
2022/04/10 01:44:09;;;;;;;8.73;4.50;;;;;;;0.02;100.00;101037.34;677835;29;1684;-77
2022/04/10 01:44:39;;;;;;;7.10;4.68;;;;;;;0.05;100.00;101044.31;672772;29;1744;-77
2022/04/10 01:45:00;;;;;;;8.80;4.70;;;;;;;0.01;100.00;101043.28;677919;29;1399;-78
2022/04/10 01:45:22;;;;;;;8.63;5.10;;;;;;;-0.02;100.00;101044.00;677968;29;1529;-78
2022/04/10 01:45:42;;;;;;;7.78;4.93;;;;;;;0.06;100.00;101036.66;682700;28;1668;-78
2022/04/10 01:46:05;;;;;;;7.05;4.75;;;;;;;0.10;100.00;101038.56;680581;28;4333;-78
2022/04/10 01:46:28;;;;;;;7.57;4.75;;;;;;;0.08;100.00;101045.31;680576;28;1714;-78
2022/04/10 01:46:49;;;;;;;8.57;4.88;;;;;;;0.06;100.00;101038.34;679789;28;1593;-78
2022/04/10 01:47:10;;;;;;;10.57;5.07;;;;;;;0.06;100.00;101040.94;679826;28;1376;-77